Terminal Aerodrome Forecast
Issued by NWS Cleveland, OH

Home | Current Version | Previous Version | Graphics & Text | Print | Product List | Glossary On
Versions: 1 2 3 4 5 6 7 8 9 10 11 12 13 14 15
000
FTUS41 KCLE 282300
TAFMFD
TAF
KMFD 282327Z 2900/2924 25010KT P6SM SCT025 OVC200
     FM291500 24010KT P6SM BKN030
     FM291800 26010G20KT P6SM BKN035=

USA.gov is the U.S. government's official web portal to all federal, state and local government web resources and services.